Time;durP1;ratioP1;P1;durP2;ratioP2;P2;SDS_P1;SDS_P2;PMS_P1;PMS_P2;Temp;Humidity;BMP_temperature;BMP_pressure;BME280_temperature;BME280_humidity;BME280_pressure;Samples;Min_cycle;Max_cycle;Signal;HPM_P1;HPM_P2
2023/09/26 00:00:23;;;;;;;4.47;1.87;;;14.40;99.90;;;;;;5033054;28;20038;-74
2023/09/26 00:02:50;;;;;;;4.77;2.33;;;14.30;99.90;;;;;;5033465;28;20006;-74
2023/09/26 00:05:18;;;;;;;4.70;2.40;;;14.30;99.90;;;;;;5015330;28;20222;-75
2023/09/26 00:07:44;;;;;;;3.17;2.17;;;14.30;99.90;;;;;;5014633;28;20021;-74
2023/09/26 00:10:11;;;;;;;5.30;2.70;;;14.20;99.90;;;;;;5015347;28;20037;-75
2023/09/26 00:12:37;;;;;;;5.40;2.17;;;14.20;99.90;;;;;;5013137;28;20054;-74
2023/09/26 00:15:04;;;;;;;3.43;1.87;;;14.10;99.90;;;;;;5015192;28;20034;-73
2023/09/26 00:17:30;;;;;;;5.53;2.33;;;14.20;99.90;;;;;;5030480;28;20026;-74
2023/09/26 00:19:55;;;;;;;5.20;2.10;;;14.20;99.90;;;;;;5015182;28;20037;-74
2023/09/26 00:22:21;;;;;;;5.00;1.97;;;14.10;99.90;;;;;;5032484;28;20030;-75
2023/09/26 00:24:47;;;;;;;3.43;2.30;;;14.10;99.90;;;;;;5019311;28;20037;-74
2023/09/26 00:27:13;;;;;;;6.30;2.83;;;14.20;99.90;;;;;;5031786;28;20034;-74
2023/09/26 00:29:40;;;;;;;6.53;2.50;;;14.10;99.90;;;;;;5015011;28;20025;-74
2023/09/26 00:32:05;;;;;;;7.57;2.67;;;14.10;99.90;;;;;;5031758;28;20053;-74
2023/09/26 00:34:31;;;;;;;5.53;2.50;;;14.00;99.90;;;;;;5014986;28;20029;-75
2023/09/26 00:36:57;;;;;;;7.30;2.40;;;14.00;99.90;;;;;;5031022;28;20049;-73
2023/09/26 00:39:25;;;;;;;3.10;2.30;;;13.90;99.90;;;;;;5032040;28;20038;-75
2023/09/26 00:41:56;;;;;;;2.70;1.80;;;14.00;99.90;;;;;;5019067;28;20148;-74
2023/09/26 00:44:23;;;;;;;7.57;2.40;;;14.00;99.90;;;;;;5030905;28;20022;-74
2023/09/26 00:46:52;;;;;;;4.03;2.30;;;14.00;99.90;;;;;;5013287;28;21159;-74
2023/09/26 00:49:18;;;;;;;5.97;2.07;;;13.80;99.90;;;;;;5031356;28;20018;-74
2023/09/26 00:51:44;;;;;;;4.90;2.30;;;13.90;99.90;;;;;;5013950;28;20018;-74
2023/09/26 00:54:11;;;;;;;4.73;2.23;;;13.80;99.90;;;;;;5014022;28;20233;-74
2023/09/26 00:56:42;;;;;;;5.70;2.20;;;13.90;99.90;;;;;;5028823;28;20064;-74
2023/09/26 00:59:20;;;;;;;;;;;;;;;;;;;;;
2023/09/26 01:01:48;;;;;;;2.77;1.87;;;13.70;99.90;;;;;;5031996;28;20052;-74
2023/09/26 01:04:18;;;;;;;6.23;2.03;;;13.70;99.90;;;;;;5012533;28;20085;-74
2023/09/26 01:06:47;;;;;;;4.83;2.30;;;13.70;99.90;;;;;;5030683;28;20061;-73
2023/09/26 01:09:12;;;;;;;4.83;2.23;;;13.70;99.90;;;;;;5014044;28;20021;-74
2023/09/26 01:11:38;;;;;;;4.10;2.20;;;13.60;99.90;;;;;;5018280;28;20026;-75
2023/09/26 01:14:07;;;;;;;3.97;2.23;;;13.50;99.90;;;;;;5011173;28;20248;-74
2023/09/26 01:16:32;;;;;;;3.97;2.40;;;13.60;99.90;;;;;;5031466;28;20026;-74
2023/09/26 01:19:00;;;;;;;5.00;2.17;;;13.60;99.90;;;;;;5014379;28;20034;-74
2023/09/26 01:21:27;;;;;;;3.70;2.10;;;13.50;99.90;;;;;;5030536;28;20106;-74
2023/09/26 01:24:01;;;;;;;4.20;2.60;;;13.50;99.90;;;;;;5031611;28;20034;-74
2023/09/26 01:26:35;;;;;;;4.10;2.27;;;13.60;99.90;;;;;;5031254;28;20022;-74
2023/09/26 01:29:01;;;;;;;5.73;2.30;;;13.50;99.90;;;;;;5029930;28;20065;-74
2023/09/26 01:31:27;;;;;;;4.73;2.13;;;13.40;99.90;;;;;;5014382;28;20090;-74
2023/09/26 01:33:53;;;;;;;7.03;2.97;;;13.50;99.90;;;;;;5012648;28;20101;-74
2023/09/26 01:36:19;;;;;;;5.63;2.27;;;13.40;99.90;;;;;;5029091;28;20014;-74
2023/09/26 01:38:44;;;;;;;2.97;1.90;;;13.40;99.90;;;;;;5029984;28;20134;-74
2023/09/26 01:41:10;;;;;;;5.80;2.70;;;13.20;99.90;;;;;;5012745;28;20030;-75
2023/09/26 01:44:12;;;;;;;6.07;2.20;;;13.10;99.90;;;;;;5080255;27;20428;-74
2023/09/26 01:46:40;;;;;;;6.00;2.70;;;13.20;99.90;;;;;;5100367;28;20032;-75
2023/09/26 01:49:08;;;;;;;5.07;2.03;;;13.10;99.90;;;;;;5082995;28;20055;-73
2023/09/26 01:51:38;;;;;;;3.30;2.30;;;13.10;99.90;;;;;;5096764;28;20025;-74
2023/09/26 01:54:07;;;;;;;5.07;2.10;;;13.00;99.90;;;;;;5080381;28;20033;-74
2023/09/26 01:56:32;;;;;;;3.47;2.50;;;13.00;99.90;;;;;;5089482;28;20097;-74
2023/09/26 01:58:58;;;;;;;3.83;2.47;;;13.00;99.90;;;;;;5081195;28;20024;-74
2023/09/26 02:01:24;;;;;;;4.63;2.37;;;13.10;99.90;;;;;;5078971;28;20032;-74
2023/09/26 02:03:51;;;;;;;4.47;2.23;;;13.00;99.90;;;;;;5080815;28;20055;-75
2023/09/26 02:06:17;;;;;;;3.07;2.00;;;13.00;99.90;;;;;;5095564;28;20012;-73
2023/09/26 02:08:43;;;;;;;4.80;2.70;;;12.90;99.90;;;;;;5080915;28;20076;-74
2023/09/26 02:11:08;;;;;;;5.10;2.53;;;13.00;99.90;;;;;;5085396;28;20105;-74
2023/09/26 02:13:34;;;;;;;6.40;2.80;;;12.90;99.90;;;;;;5080870;28;20252;-73
2023/09/26 02:16:00;;;;;;;4.33;2.57;;;12.90;99.90;;;;;;5077711;28;20032;-73
2023/09/26 02:18:26;;;;;;;4.73;2.33;;;12.90;99.90;;;;;;5080697;28;20029;-74
2023/09/26 02:20:52;;;;;;;3.93;2.53;;;12.80;99.90;;;;;;5079303;28;20013;-73
2023/09/26 02:23:19;;;;;;;4.07;2.67;;;12.80;99.90;;;;;;5077475;28;20047;-74
2023/09/26 02:25:52;;;;;;;5.00;2.23;;;12.80;99.90;;;;;;5096535;28;20021;-74
2023/09/26 02:28:19;;;;;;;4.00;2.33;;;12.80;99.90;;;;;;5081360;28;20032;-73
2023/09/26 02:30:45;;;;;;;7.40;2.73;;;12.70;99.90;;;;;;5081415;28;20005;-74
2023/09/26 02:33:13;;;;;;;3.63;2.63;;;12.70;99.90;;;;;;5095562;28;20036;-73
2023/09/26 02:35:39;;;;;;;4.23;2.13;;;12.70;99.90;;;;;;5080226;28;20024;-74
2023/09/26 02:38:08;;;;;;;3.50;2.30;;;12.70;99.90;;;;;;5078674;28;20009;-73
2023/09/26 02:40:36;;;;;;;3.50;2.40;;;12.70;99.90;;;;;;5087665;28;20017;-74
2023/09/26 02:43:03;;;;;;;5.83;2.80;;;12.70;99.90;;;;;;5082786;28;20036;-73
2023/09/26 02:45:30;;;;;;;3.70;2.70;;;12.70;99.90;;;;;;5080933;28;20017;-74
2023/09/26 02:47:55;;;;;;;8.97;3.47;;;12.70;99.90;;;;;;5094984;28;20040;-73
2023/09/26 02:50:22;;;;;;;8.53;3.40;;;12.70;99.90;;;;;;5080293;28;20025;-73
2023/09/26 02:52:48;;;;;;;9.57;3.40;;;12.70;99.90;;;;;;5088205;28;20013;-73
2023/09/26 02:55:15;;;;;;;6.50;3.33;;;12.60;99.90;;;;;;5069036;28;20021;-73
2023/09/26 02:57:43;;;;;;;5.57;3.00;;;12.70;99.90;;;;;;5068730;28;20017;-73
2023/09/26 03:00:18;;;;;;;5.70;2.53;;;12.60;99.90;;;;;;5072691;28;20024;-73
2023/09/26 03:02:47;;;;;;;4.20;2.77;;;12.60;99.90;;;;;;5068056;28;20044;-74
2023/09/26 03:05:13;;;;;;;4.50;2.63;;;12.60;99.90;;;;;;5066922;28;20036;-73
2023/09/26 03:07:39;;;;;;;6.47;2.90;;;12.60;99.90;;;;;;5068876;28;20026;-74
2023/09/26 03:10:06;;;;;;;6.70;2.63;;;12.50;99.90;;;;;;5065804;28;20089;-73
2023/09/26 03:12:32;;;;;;;4.93;2.40;;;12.50;99.90;;;;;;5082431;28;20036;-74
2023/09/26 03:14:57;;;;;;;8.00;2.83;;;12.50;99.90;;;;;;5074507;28;20029;-74
2023/09/26 03:17:25;;;;;;;6.83;2.80;;;12.40;99.90;;;;;;5067846;28;20036;-74
2023/09/26 03:19:53;;;;;;;7.90;2.67;;;12.40;99.90;;;;;;5084116;28;20013;-73
2023/09/26 03:22:19;;;;;;;7.27;3.27;;;12.30;99.90;;;;;;5076268;28;20055;-73
2023/09/26 03:24:47;;;;;;;5.87;3.30;;;12.40;99.90;;;;;;5081634;28;20037;-73
2023/09/26 03:27:12;;;;;;;4.73;2.83;;;12.20;99.90;;;;;;5066941;28;20047;-73
2023/09/26 03:29:40;;;;;;;10.93;2.97;;;12.30;99.90;;;;;;5066977;28;20045;-73
2023/09/26 03:32:06;;;;;;;6.53;3.30;;;12.20;99.90;;;;;;5067312;28;20025;-73
2023/09/26 03:34:31;;;;;;;5.53;3.30;;;12.20;99.90;;;;;;5082300;28;20027;-73
2023/09/26 03:36:57;;;;;;;5.40;3.40;;;12.20;99.90;;;;;;5065685;28;20032;-74
2023/09/26 03:39:25;;;;;;;6.00;3.13;;;12.20;99.90;;;;;;5084350;28;20040;-74
2023/09/26 03:41:50;;;;;;;4.27;2.73;;;12.20;99.90;;;;;;5070305;28;20017;-73
2023/09/26 03:44:16;;;;;;;6.17;3.20;;;12.10;99.90;;;;;;5066951;28;20043;-73
2023/09/26 03:46:41;;;;;;;4.13;2.87;;;12.20;99.90;;;;;;5065355;28;20115;-73
2023/09/26 03:49:09;;;;;;;5.23;2.70;;;12.10;99.90;;;;;;5065007;28;20028;-74
2023/09/26 03:51:35;;;;;;;7.87;3.00;;;12.10;99.90;;;;;;5080533;28;20025;-74
2023/09/26 03:54:00;;;;;;;5.80;3.37;;;12.10;99.90;;;;;;5066405;28;20060;-73
2023/09/26 03:56:28;;;;;;;8.33;2.83;;;12.10;99.90;;;;;;5068532;28;21207;-74
2023/09/26 03:58:55;;;;;;;8.33;3.80;;;12.10;99.90;;;;;;5081880;28;20044;-73
2023/09/26 04:01:21;;;;;;;6.53;3.27;;;12.20;99.90;;;;;;5082311;28;20040;-74
2023/09/26 04:03:48;;;;;;;6.97;2.83;;;12.10;99.90;;;;;;5065493;28;20097;-74
2023/09/26 04:06:19;;;;;;;4.80;3.17;;;12.10;99.90;;;;;;5062372;28;20013;-73
2023/09/26 04:08:47;;;;;;;5.70;3.40;;;12.10;99.90;;;;;;5083055;28;20028;-75
2023/09/26 04:11:17;;;;;;;7.77;3.20;;;12.10;99.90;;;;;;5064386;28;21098;-73
2023/09/26 04:13:45;;;;;;;5.47;3.27;;;12.10;99.90;;;;;;5082214;28;20048;-74
2023/09/26 04:16:11;;;;;;;5.03;3.17;;;12.10;99.90;;;;;;5066681;28;20082;-73
2023/09/26 04:18:37;;;;;;;8.27;3.10;;;12.10;99.90;;;;;;5065789;28;20021;-74
2023/09/26 04:21:04;;;;;;;6.80;3.03;;;12.00;99.90;;;;;;5066824;28;20116;-73
2023/09/26 04:23:34;;;;;;;4.07;3.00;;;12.10;99.90;;;;;;5067208;28;20049;-74
2023/09/26 04:26:08;;;;;;;3.80;2.47;;;12.10;99.90;;;;;;5062704;28;20009;-74
2023/09/26 04:28:33;;;;;;;5.13;2.60;;;12.10;99.90;;;;;;5063202;28;20029;-73
2023/09/26 04:30:59;;;;;;;4.47;2.87;;;12.10;99.90;;;;;;5082309;28;20048;-73
2023/09/26 04:33:27;;;;;;;7.40;3.30;;;12.00;99.90;;;;;;5066572;28;20052;-74
2023/09/26 04:35:57;;;;;;;5.67;3.07;;;12.00;99.90;;;;;;5064707;28;20047;-74
2023/09/26 04:38:25;;;;;;;6.30;3.10;;;12.00;99.90;;;;;;5067571;28;20093;-74
2023/09/26 04:40:50;;;;;;;8.80;3.30;;;12.00;99.90;;;;;;5079530;28;20127;-74
2023/09/26 04:43:16;;;;;;;5.70;3.37;;;12.10;99.90;;;;;;5080621;28;20037;-73
2023/09/26 04:45:42;;;;;;;4.90;3.40;;;12.00;99.90;;;;;;5080434;28;20060;-73
2023/09/26 04:48:08;;;;;;;6.03;3.17;;;12.00;99.90;;;;;;5063013;28;20055;-74
2023/09/26 04:50:35;;;;;;;5.83;3.17;;;11.90;99.90;;;;;;5081127;28;20040;-73
2023/09/26 04:53:03;;;;;;;8.03;3.33;;;11.90;99.90;;;;;;5066761;28;20017;-73
2023/09/26 04:55:29;;;;;;;5.70;3.37;;;11.90;99.90;;;;;;5065101;28;20027;-73
2023/09/26 04:57:54;;;;;;;4.83;3.17;;;11.90;99.90;;;;;;5068815;28;20009;-73
2023/09/26 05:00:20;;;;;;;7.30;3.27;;;11.90;99.90;;;;;;5063422;28;20302;-74
2023/09/26 05:02:53;;;;;;;7.43;2.83;;;11.90;99.90;;;;;;5062112;28;20052;-74
2023/09/26 05:05:21;;;;;;;7.00;2.97;;;11.90;99.90;;;;;;5082205;28;20021;-73
2023/09/26 05:07:48;;;;;;;6.87;3.67;;;11.90;99.90;;;;;;5063953;28;20116;-73
2023/09/26 05:10:14;;;;;;;6.43;3.47;;;11.90;99.90;;;;;;5066319;28;20124;-74
2023/09/26 05:12:40;;;;;;;5.17;3.33;;;11.90;99.90;;;;;;5079713;28;20024;-73
2023/09/26 05:15:12;;;;;;;6.60;3.60;;;11.90;99.90;;;;;;5081141;28;20026;-73
2023/09/26 05:17:42;;;;;;;4.15;3.10;;;11.80;99.90;;;;;;5063111;28;20028;-73
2023/09/26 05:20:10;;;;;;;8.70;3.13;;;11.80;99.90;;;;;;5081639;28;20017;-73
2023/09/26 05:22:41;;;;;;;10.03;3.63;;;11.80;99.90;;;;;;5064954;28;20102;-74
2023/09/26 05:25:07;;;;;;;5.63;3.53;;;11.80;99.90;;;;;;5078841;28;20036;-73
2023/09/26 05:27:33;;;;;;;10.40;3.33;;;11.80;99.90;;;;;;5079678;28;20036;-74
2023/09/26 05:29:59;;;;;;;8.53;4.00;;;11.70;99.90;;;;;;5065892;28;20057;-74
2023/09/26 05:32:30;;;;;;;5.70;3.00;;;11.80;99.90;;;;;;5065059;28;20033;-73
2023/09/26 05:34:58;;;;;;;6.20;3.33;;;11.80;99.90;;;;;;5062799;28;20033;-73
2023/09/26 05:37:23;;;;;;;6.40;3.23;;;11.80;99.90;;;;;;5080096;28;20041;-74
2023/09/26 05:39:51;;;;;;;13.77;4.63;;;11.80;99.90;;;;;;5064489;28;21220;-73
2023/09/26 05:42:17;;;;;;;6.53;3.70;;;11.70;99.90;;;;;;5069551;28;20033;-73
2023/09/26 05:44:42;;;;;;;8.87;4.17;;;11.70;99.90;;;;;;5064328;28;20105;-75
2023/09/26 05:47:08;;;;;;;7.87;3.20;;;11.70;99.90;;;;;;5064392;28;20029;-74
2023/09/26 05:49:36;;;;;;;9.57;3.97;;;11.80;99.90;;;;;;5080159;28;20029;-73
2023/09/26 05:52:04;;;;;;;7.83;3.60;;;11.70;99.90;;;;;;5065781;28;20030;-74
2023/09/26 05:54:33;;;;;;;9.40;3.83;;;11.70;99.90;;;;;;5065537;28;20049;-74
2023/09/26 05:56:59;;;;;;;7.57;3.90;;;11.70;99.90;;;;;;5066817;28;20063;-74
2023/09/26 05:59:25;;;;;;;7.33;3.97;;;11.70;99.90;;;;;;5063403;28;20013;-74
2023/09/26 06:01:51;;;;;;;15.83;5.10;;;11.70;99.90;;;;;;5063125;28;20013;-74
2023/09/26 06:04:21;;;;;;;7.80;4.77;;;11.70;99.90;;;;;;5064377;28;20017;-73
2023/09/26 06:06:47;;;;;;;9.73;4.97;;;11.60;99.90;;;;;;5081475;28;20025;-74
2023/09/26 06:09:13;;;;;;;10.43;4.83;;;11.80;99.90;;;;;;5080005;28;20048;-73
2023/09/26 06:11:41;;;;;;;10.23;5.37;;;11.70;99.90;;;;;;5078756;28;20052;-74
2023/09/26 06:14:06;;;;;;;9.70;4.80;;;11.80;99.90;;;;;;5078001;28;20025;-74
2023/09/26 06:16:35;;;;;;;12.00;4.40;;;11.80;99.90;;;;;;5079729;28;20116;-73
2023/09/26 06:19:00;;;;;;;9.30;5.43;;;11.80;99.90;;;;;;5080902;28;20021;-73
2023/09/26 06:21:26;;;;;;;6.97;3.93;;;11.80;99.90;;;;;;5063144;28;20032;-73
2023/09/26 06:23:52;;;;;;;7.97;4.57;;;11.80;99.90;;;;;;5063043;28;20092;-73
2023/09/26 06:26:18;;;;;;;8.63;4.63;;;11.90;99.90;;;;;;5064426;28;20055;-74
2023/09/26 06:28:43;;;;;;;6.93;4.43;;;12.00;99.90;;;;;;5076566;28;20034;-73
2023/09/26 06:31:10;;;;;;;8.67;5.03;;;11.90;99.90;;;;;;5068799;28;20202;-73
2023/09/26 06:33:36;;;;;;;8.83;5.30;;;12.00;99.90;;;;;;5082517;28;20045;-74
2023/09/26 06:36:22;;;;;;;8.07;4.83;;;12.10;99.90;;;;;;5084403;28;20028;-73
2023/09/26 06:38:48;;;;;;;7.80;4.10;;;12.20;99.90;;;;;;5064861;28;20021;-74
2023/09/26 06:41:14;;;;;;;9.30;5.07;;;12.20;99.90;;;;;;5067505;28;20029;-74
2023/09/26 06:43:39;;;;;;;7.87;3.90;;;12.30;99.90;;;;;;5084326;28;20063;-74
2023/09/26 06:46:11;;;;;;;6.60;3.70;;;12.30;99.90;;;;;;5081509;28;20013;-74
2023/09/26 06:48:43;;;;;;;12.67;4.07;;;12.40;99.90;;;;;;5069227;28;20028;-74
2023/09/26 06:51:09;;;;;;;8.88;4.20;;;12.40;99.90;;;;;;5066240;28;20047;-74
2023/09/26 06:53:38;;;;;;;8.00;3.87;;;12.40;99.90;;;;;;5067153;28;20037;-73
2023/09/26 06:56:08;;;;;;;8.73;4.23;;;12.50;99.90;;;;;;5083173;28;20028;-73
2023/09/26 06:58:37;;;;;;;14.83;4.20;;;12.50;99.90;;;;;;5066693;28;20032;-74
2023/09/26 07:01:03;;;;;;;13.07;6.00;;;12.60;99.90;;;;;;5070902;28;20034;-75
2023/09/26 07:03:29;;;;;;;6.30;4.33;;;12.60;99.90;;;;;;5084243;28;20054;-76
2023/09/26 07:05:55;;;;;;;6.37;4.03;;;12.60;99.90;;;;;;5062857;28;20018;-74
2023/09/26 07:08:25;;;;;;;10.20;4.53;;;12.60;99.90;;;;;;5066444;28;20025;-76
2023/09/26 07:10:51;;;;;;;9.67;4.07;;;12.70;99.90;;;;;;5083767;28;20013;-74
2023/09/26 07:13:17;;;;;;;11.03;4.93;;;12.80;99.90;;;;;;5085192;28;20013;-74
2023/09/26 07:15:43;;;;;;;7.90;4.20;;;12.80;99.90;;;;;;5062490;28;20092;-73
2023/09/26 07:18:09;;;;;;;6.93;4.03;;;12.90;99.90;;;;;;5062902;28;20017;-74
2023/09/26 07:20:50;;;;;;;7.67;3.87;;;12.90;99.90;;;;;;5064012;28;20021;-73
2023/09/26 07:23:18;;;;;;;8.47;3.77;;;13.00;99.90;;;;;;5066345;28;20033;-74
2023/09/26 07:25:48;;;;;;;7.17;4.00;;;13.00;99.90;;;;;;5068969;28;20018;-73
2023/09/26 07:28:14;;;;;;;9.60;5.37;;;13.10;99.90;;;;;;5066604;28;20026;-73
2023/09/26 07:30:42;;;;;;;10.57;5.10;;;13.10;99.90;;;;;;5081867;28;20028;-75
2023/09/26 07:33:08;;;;;;;9.03;4.27;;;13.10;99.90;;;;;;5065898;28;20051;-73
2023/09/26 07:35:34;;;;;;;8.27;4.47;;;13.20;99.90;;;;;;5064113;28;20025;-73
2023/09/26 07:38:03;;;;;;;8.67;4.10;;;13.20;99.90;;;;;;5080564;28;20037;-74
2023/09/26 07:40:31;;;;;;;27.73;4.40;;;13.20;99.90;;;;;;5063269;28;20025;-73
2023/09/26 07:43:02;;;;;;;11.23;4.37;;;13.30;99.90;;;;;;5064530;28;20053;-73
2023/09/26 07:45:27;;;;;;;8.03;5.17;;;13.30;99.90;;;;;;5064784;28;20020;-74
2023/09/26 07:47:53;;;;;;;7.80;3.90;;;13.30;99.90;;;;;;5064955;28;20213;-74
2023/09/26 07:50:19;;;;;;;6.73;4.07;;;13.40;99.90;;;;;;5080946;28;20052;-73
2023/09/26 07:52:44;;;;;;;6.43;4.20;;;13.40;99.90;;;;;;5081354;28;20056;-74
2023/09/26 07:55:10;;;;;;;6.43;3.53;;;13.50;99.90;;;;;;5080255;28;20089;-74
2023/09/26 07:57:38;;;;;;;10.47;3.73;;;13.60;99.90;;;;;;5065936;28;20024;-73
2023/09/26 08:00:11;;;;;;;4.90;3.13;;;13.60;99.90;;;;;;5065473;28;20040;-74
2023/09/26 08:02:36;;;;;;;;;;;13.70;99.90;;;;;;5080154;28;20021;-73
2023/09/26 08:05:04;;;;;;;6.03;3.30;;;13.80;99.90;;;;;;5065553;28;19930;-73
2023/09/26 08:07:32;;;;;;;8.17;3.07;;;13.90;99.90;;;;;;5064339;28;20014;-73
2023/09/26 08:10:00;;;;;;;9.73;4.07;;;13.90;99.90;;;;;;5063913;28;20044;-74
2023/09/26 08:12:27;;;;;;;8.87;3.90;;;14.00;99.90;;;;;;5060540;28;20093;-73
2023/09/26 08:14:57;;;;;;;6.45;3.78;;;14.10;99.90;;;;;;5063793;28;20069;-73
2023/09/26 08:17:26;;;;;;;8.30;3.73;;;14.10;99.90;;;;;;5079676;28;20037;-74
2023/09/26 08:19:51;;;;;;;7.87;3.87;;;14.20;99.90;;;;;;5079011;28;20026;-74
2023/09/26 08:22:19;;;;;;;8.73;4.00;;;14.20;99.90;;;;;;5078191;28;20029;-73
2023/09/26 08:24:47;;;;;;;8.20;3.00;;;14.20;99.90;;;;;;5077728;28;20021;-73
2023/09/26 08:27:16;;;;;;;10.02;4.88;;;14.30;99.90;;;;;;5062032;28;20034;-73
2023/09/26 08:29:44;;;;;;;10.25;5.65;;;14.30;99.90;;;;;;5080518;28;20018;-74
2023/09/26 08:32:09;;;;;;;8.25;4.55;;;14.30;99.90;;;;;;5071657;28;20025;-74
2023/09/26 08:34:35;;;;;;;10.82;3.60;;;14.40;99.90;;;;;;5063143;28;20060;-74
2023/09/26 08:37:01;;;;;;;9.02;3.40;;;14.40;99.90;;;;;;5061707;28;20033;-73
2023/09/26 08:39:27;;;;;;;7.07;2.85;;;14.40;99.90;;;;;;5062927;28;20025;-74
2023/09/26 08:41:53;;;;;;;7.22;4.07;;;14.40;99.90;;;;;;5122186;22;20090;-74
2023/09/26 08:44:19;;;;;;;7.72;4.05;;;14.50;99.90;;;;;;5064688;28;20032;-74
2023/09/26 08:46:50;;;;;;;6.90;4.90;;;14.50;99.90;;;;;;5045800;28;20060;-74
2023/09/26 08:49:16;;;;;;;4.95;3.20;;;14.50;99.90;;;;;;5061415;28;20021;-74
2023/09/26 08:52:04;;;;;;;6.70;3.70;;;14.50;99.90;;;;;;5044263;28;20053;-73
2023/09/26 08:54:33;;;;;;;8.05;3.47;;;14.60;99.90;;;;;;5061803;28;20276;-74
2023/09/26 08:57:29;;;;;;;7.55;3.63;;;14.60;99.90;;;;;;5042130;28;20030;-74
2023/09/26 08:59:57;;;;;;;5.30;3.55;;;14.60;99.90;;;;;;5061555;28;20009;-74
2023/09/26 09:02:43;;;;;;;6.82;3.40;;;14.70;99.90;;;;;;5046597;28;20537;-74
2023/09/26 09:05:11;;;;;;;5.95;3.00;;;14.80;99.90;;;;;;5059407;28;20035;-74
2023/09/26 09:07:40;;;;;;;5.20;3.20;;;14.80;99.90;;;;;;5059684;28;20084;-74
2023/09/26 09:10:34;;;;;;;6.65;2.80;;;15.00;99.90;;;;;;5044236;28;20125;-74
2023/09/26 09:13:04;;;;;;;6.78;2.75;;;15.00;99.90;;;;;;5041498;28;20017;-74
2023/09/26 09:15:30;;;;;;;6.80;3.00;;;15.20;99.90;;;;;;5043389;28;20029;-74
2023/09/26 09:18:11;;;;;;;4.55;2.55;;;15.20;99.90;;;;;;5045196;28;20021;-74
2023/09/26 09:20:37;;;;;;;7.80;3.00;;;15.30;99.90;;;;;;5059382;28;20018;-74
2023/09/26 09:23:06;;;;;;;5.95;2.92;;;15.40;99.90;;;;;;5050430;28;20072;-74
2023/09/26 09:26:09;;;;;;;7.57;3.45;;;15.40;99.90;;;;;;5059550;28;20073;-73
2023/09/26 09:28:35;;;;;;;5.90;3.47;;;15.50;99.90;;;;;;5057631;28;20045;-73
2023/09/26 09:31:01;;;;;;;7.82;2.85;;;15.50;99.90;;;;;;5060384;28;20048;-74
2023/09/26 09:33:44;;;;;;;7.15;2.63;;;15.50;99.90;;;;;;5042501;28;20079;-74
2023/09/26 09:36:18;;;;;;;6.60;2.30;;;15.60;99.90;;;;;;5060796;28;20064;-73
2023/09/26 09:38:44;;;;;;;8.50;2.63;;;15.70;99.90;;;;;;5061243;28;20060;-74
2023/09/26 09:41:12;;;;;;;4.00;1.98;;;15.70;99.90;;;;;;5061759;28;20025;-73
2023/09/26 09:43:38;;;;;;;8.38;2.60;;;15.80;99.90;;;;;;5058224;28;20063;-73
2023/09/26 09:46:08;;;;;;;7.15;2.70;;;15.90;99.90;;;;;;5059244;28;20014;-74
2023/09/26 09:48:42;;;;;;;8.30;2.47;;;15.90;99.90;;;;;;5042194;28;20104;-73
2023/09/26 09:51:12;;;;;;;10.73;3.03;;;16.00;99.90;;;;;;5050540;28;20040;-74
2023/09/26 09:53:41;;;;;;;7.90;2.40;;;16.10;99.90;;;;;;5050818;28;20021;-74
2023/09/26 09:56:08;;;;;;;5.95;2.60;;;16.10;99.90;;;;;;5044750;28;20025;-74
2023/09/26 09:58:43;;;;;;;10.75;2.80;;;16.20;99.90;;;;;;5063395;28;20025;-73
2023/09/26 10:01:12;;;;;;;5.78;2.65;;;16.30;99.90;;;;;;5061634;28;20048;-74
2023/09/26 10:03:51;;;;;;;4.90;3.00;;;16.30;99.90;;;;;;5062632;28;20045;-74
2023/09/26 10:06:18;;;;;;;10.75;3.00;;;16.30;99.90;;;;;;5047497;28;20025;-75
2023/09/26 10:08:47;;;;;;;8.27;1.83;;;16.30;99.90;;;;;;5054811;28;20044;-74
2023/09/26 10:11:18;;;;;;;4.88;2.30;;;16.30;99.90;;;;;;5065403;28;20021;-75
2023/09/26 10:13:46;;;;;;;4.85;2.50;;;16.30;99.90;;;;;;5068101;28;20029;-74
2023/09/26 10:16:14;;;;;;;3.67;1.85;;;16.30;99.90;;;;;;5066428;28;20044;-75
2023/09/26 10:18:43;;;;;;;4.65;2.30;;;16.30;99.90;;;;;;5063956;28;20093;-74
2023/09/26 10:21:23;;;;;;;5.78;2.65;;;16.30;99.90;;;;;;5054434;28;20037;-74
2023/09/26 10:24:07;;;;;;;7.45;2.15;;;16.30;99.90;;;;;;5048870;28;20136;-74
2023/09/26 10:26:33;;;;;;;7.30;2.47;;;16.50;99.90;;;;;;5064600;28;20036;-74
2023/09/26 10:29:17;;;;;;;3.70;2.20;;;16.50;99.90;;;;;;5067785;28;20025;-74
2023/09/26 10:31:56;;;;;;;9.23;2.05;;;16.80;99.90;;;;;;5068905;28;20028;-74
2023/09/26 10:34:32;;;;;;;4.60;2.10;;;16.90;99.90;;;;;;5067060;28;20025;-75
2023/09/26 10:36:59;;;;;;;4.45;1.90;;;17.00;99.90;;;;;;5070112;28;20126;-74
2023/09/26 10:39:38;;;;;;;4.38;2.00;;;17.20;99.90;;;;;;5054437;28;20013;-74
2023/09/26 10:42:18;;;;;;;4.78;2.17;;;17.30;99.90;;;;;;5066516;28;20045;-74
2023/09/26 10:44:45;;;;;;;6.57;2.67;;;17.30;99.90;;;;;;5067446;28;20581;-74
2023/09/26 10:47:16;;;;;;;4.95;2.03;;;17.40;99.90;;;;;;5067064;28;20043;-74
2023/09/26 10:49:45;;;;;;;4.90;2.10;;;17.50;99.90;;;;;;5067162;28;20044;-78
2023/09/26 10:52:15;;;;;;;6.82;2.13;;;17.60;99.90;;;;;;5045050;28;20029;-75
2023/09/26 10:54:41;;;;;;;4.93;1.90;;;17.70;99.90;;;;;;5035820;28;20059;-77
2023/09/26 10:57:07;;;;;;;4.55;1.70;;;17.80;99.90;;;;;;5032981;28;20033;-81
2023/09/26 10:59:34;;;;;;;3.45;1.95;;;18.00;99.90;;;;;;5042507;28;20071;-89
2023/09/26 11:02:01;;;;;;;5.43;1.80;;;18.10;99.90;;;;;;5042872;28;20037;-87
2023/09/26 11:04:31;;;;;;;9.23;1.88;;;18.20;99.90;;;;;;5031587;28;20035;-88
2023/09/26 11:06:59;;;;;;;3.80;1.73;;;18.30;99.90;;;;;;5042974;28;20083;-86
2023/09/26 11:09:30;;;;;;;8.90;1.85;;;18.40;99.90;;;;;;5043838;28;20071;-89
2023/09/26 11:11:56;;;;;;;4.70;1.73;;;18.50;99.90;;;;;;5027301;28;20119;-86
2023/09/26 11:14:25;;;;;;;6.85;1.60;;;18.60;99.90;;;;;;5031702;28;21688;-88
2023/09/26 11:16:51;;;;;;;2.30;1.50;;;18.70;99.90;;;;;;5042859;28;20429;-85
2023/09/26 11:19:22;;;;;;;5.20;1.65;;;18.70;99.90;;;;;;5042396;28;20029;-85
2023/09/26 11:21:50;;;;;;;2.42;1.50;;;18.70;99.90;;;;;;5026800;28;20025;-85
2023/09/26 11:24:30;;;;;;;2.78;1.65;;;18.70;99.90;;;;;;5030546;28;20028;-88
2023/09/26 11:27:04;;;;;;;4.38;1.58;;;18.80;99.90;;;;;;5045238;28;20057;-87
2023/09/26 11:29:33;;;;;;;3.53;1.98;;;18.80;99.90;;;;;;5039920;28;20024;-86
2023/09/26 11:31:59;;;;;;;2.50;1.58;;;18.90;99.90;;;;;;5025418;28;20033;-86
2023/09/26 11:34:26;;;;;;;3.97;1.73;;;18.90;99.90;;;;;;5041068;28;20118;-90
2023/09/26 11:36:52;;;;;;;2.45;1.42;;;19.00;99.90;;;;;;5040350;28;20104;-90
2023/09/26 11:39:18;;;;;;;4.00;1.48;;;19.10;99.90;;;;;;5040666;28;20139;-85
2023/09/26 11:41:47;;;;;;;2.47;1.45;;;19.10;99.90;;;;;;5022160;28;20025;-89
2023/09/26 11:44:14;;;;;;;2.00;1.45;;;19.20;99.90;;;;;;5023695;28;20033;-84
2023/09/26 11:46:49;;;;;;;2.78;1.45;;;19.30;99.90;;;;;;5039807;28;20112;-84
2023/09/26 11:49:16;;;;;;;4.82;1.10;;;19.40;99.90;;;;;;5031160;28;20040;-83
2023/09/26 11:51:43;;;;;;;3.13;1.08;;;19.50;99.90;;;;;;5041039;28;20044;-85
2023/09/26 11:54:09;;;;;;;1.92;1.20;;;19.60;99.90;;;;;;5020905;28;20114;-87
2023/09/26 11:56:38;;;;;;;2.40;1.30;;;19.70;99.90;;;;;;5044065;28;20030;-86
2023/09/26 11:59:06;;;;;;;2.85;1.27;;;19.80;99.90;;;;;;5042986;28;20612;-82
2023/09/26 12:01:35;;;;;;;3.75;1.27;;;19.90;99.90;;;;;;5023308;28;20090;-84
2023/09/26 12:04:06;;;;;;;2.30;1.55;;;20.10;99.90;;;;;;5020960;28;20066;-82
2023/09/26 12:06:34;;;;;;;2.67;1.20;;;20.20;99.90;;;;;;5025999;28;20082;-86
2023/09/26 12:09:00;;;;;;;3.13;1.80;;;20.30;99.90;;;;;;5023670;28;20408;-85
2023/09/26 12:11:25;;;;;;;4.10;1.45;;;20.40;99.90;;;;;;5025669;28;20029;-79
2023/09/26 12:13:53;;;;;;;3.70;1.48;;;20.50;99.90;;;;;;5030461;28;20067;-87
2023/09/26 12:16:22;;;;;;;2.20;1.30;;;20.50;99.90;;;;;;5023416;28;20127;-83
2023/09/26 12:18:47;;;;;;;2.72;1.20;;;20.50;99.90;;;;;;5023057;28;20029;-87
2023/09/26 12:21:13;;;;;;;1.70;1.20;;;20.50;99.90;;;;;;5024694;28;20473;-83
2023/09/26 12:23:41;;;;;;;2.92;1.17;;;20.60;99.90;;;;;;5024360;28;20131;-87
2023/09/26 12:26:09;;;;;;;3.72;1.10;;;20.60;99.90;;;;;;5028313;28;20040;-88
2023/09/26 12:28:35;;;;;;;1.83;1.00;;;20.70;99.90;;;;;;5021665;28;20033;-84
2023/09/26 12:31:01;;;;;;;4.85;1.45;;;20.80;99.90;;;;;;5038752;28;20086;-89
2023/09/26 12:33:26;;;;;;;2.47;1.40;;;20.80;99.90;;;;;;5041379;28;20037;-81
2023/09/26 12:35:52;;;;;;;2.40;1.15;;;20.80;99.90;;;;;;5038780;28;20040;-86
2023/09/26 12:38:18;;;;;;;2.83;1.17;;;20.90;99.90;;;;;;5029599;28;20080;-84
2023/09/26 12:40:46;;;;;;;1.65;1.00;;;21.00;99.90;;;;;;5042061;28;20047;-83
2023/09/26 12:43:11;;;;;;;3.45;1.35;;;21.10;99.90;;;;;;5037753;28;20159;-81
2023/09/26 12:45:39;;;;;;;3.50;1.13;;;21.20;99.90;;;;;;5041214;28;20120;-87
2023/09/26 12:48:07;;;;;;;3.53;1.38;;;21.30;99.90;;;;;;5039420;28;20033;-82
2023/09/26 12:50:35;;;;;;;2.17;0.90;;;21.40;99.90;;;;;;5038476;28;20053;-84
2023/09/26 12:53:04;;;;;;;3.45;1.33;;;21.50;99.90;;;;;;5019423;28;20091;-87